Date,TemperatureHighF,TemperatureAvgF,TemperatureLowF,DewpointHighF,DewpointAvgF,DewpointLowF,HumidityHigh,HumidityAvg,HumidityLow,PressureMaxIn,PressureMinIn,WindSpeedMaxMPH,WindSpeedAvgMPH,GustSpeedMaxMPH,PrecipitationSumIn
2013-9-6,68,63,52,50,46,39,94,58,37,30.23,30.13,12,6,13,0.00
2013-9-7,75,63,48,61,52,46,100,71,39,30.13,29.90,16,6,16,0.00
2013-9-8,81,70,55,63,56,43,83,62,36,30.08,29.78,16,9,16,0.00
2013-9-9,66,59,46,56,46,41,87,63,42,30.24,30.08,14,8,14,0.00
2013-9-10,73,70,64,70,64,55,94,83,68,30.18,30.04,16,10,16,0.00
2013-9-11,88,75,68,74,70,66,100,86,63,30.11,30.01,11,5,11,0.00
2013-9-12,79,72,32,72,69,32,100,91,79,30.01,29.70,21,7,21,0.31
2013-9-13,79,68,32,70,62,32,100,81,61,29.77,29.60,13,6,13,0.01
2013-9-14,70,62,54,55,52,48,88,70,53,30.08,29.77,12,8,12,0.00
2013-9-15,66,59,48,57,49,43,94,71,45,30.18,30.08,13,6,13,0.00
2013-9-16,70,62,54,57,54,39,94,75,56,30.22,30.03,16,7,16,0.00
2013-9-17,64,53,43,45,39,35,93,61,37,30.41,30.22,16,8,16,0.00
2013-9-18,66,55,43,54,45,39,93,71,40,30.35,30.18,12,6,12,0.00
2013-9-19,72,62,50,57,53,46,94,74,50,30.18,30.07,13,6,13,0.00
2013-9-20,72,61,32,63,57,32,100,87,69,30.10,30.03,10,5,10,0.00
2013-9-21,72,65,54,66,62,54,100,91,78,30.04,29.73,18,7,18,0.00
2013-9-22,72,65,32,66,56,32,100,74,49,29.86,29.64,26,9,26,0.01
2013-9-23,64,56,46,47,44,39,82,65,48,30.02,29.86,14,9,14,0.00
2013-9-24,70,55,43,50,43,39,93,67,38,30.03,29.83,12,6,12,0.00
2013-9-25,68,59,45,57,49,43,93,72,46,29.96,29.87,11,6,11,0.00
2013-9-26,66,59,52,52,50,48,94,74,52,30.11,29.96,9,5,9,0.00
2013-9-27,66,59,52,54,52,48,100,78,60,30.27,30.11,11,6,11,0.00
2013-9-28,70,59,50,57,53,48,100,81,60,30.31,30.25,10,3,10,0.00
2013-9-29,66,54,32,55,49,32,100,85,56,30.25,30.10,14,5,14,0.00
2013-9-30,72,59,52,54,52,47,94,79,41,30.10,29.97,10,5,10,0.00